Brownsville, Oregon
Current Conditions -  °F | °C
As of 6:35 AM on Friday 28 Nov 2014 (Local Time) from KCVO Reporting Station
Overcast Overcast  
Wind Chill: 54°   Ceiling: 3500
Heat Index: 54°   Visibility: 9mi
Dew Point: 48°   Wind: 15mph
Humidity: 82%   Direction: 170°S
Pressure: 29.71"   Gusts: NA
Location:  44.39°N, 122.98°W
Report Text: KCVO 281435Z AUTO 17013KT 9SM OVC035 12/09 A2971 RMK AO1 P0001
Loading
Personal Weather Stations






























Interactive Weather Map New forecast layout! Learn more

10-Day Weather Forecast

Advertisements
Track Severe Weather on mobile